首页
METAR-TAF:

METAR-TAF

机场 :

Fairmont Municipal Airport

Fairmont, 明尼蘇達州, 美国

纬度: 43-39N, 经度: 094-25W, 海拔: 354米

当前天气观测

该预报发布于13分钟前的09:33 UTC
静风
温度 17°C
湿度 100%
气压 1011 hPa
能見度: 2.8公里
阴天层高于400英尺
轻雾

METAR: KFRM 260933Z AUTO 00000KT 1 3/4SM BR OVC004 17/17 A2984 RMK AO2

时间: 04:46 (09:46 UTC)


TAF: 丢失

超过4000个机场的气象观测和天气预报(METAR&TAF报告)。

可查询的气象台以黄色和红色小点在地图上表示。

将鼠标移到小点上方,可查看气象台名称。

然后点击查看天气观测和预报。

如需切换地图:点击带黑十字的绿色按钮放大地图;点击带横线的绿色按钮缩小地图;或者点击绿色箭头查看邻近地区的地图。


METAR-TAF: